Meteo Giornale » Osservazioni meteo Italia » Pescara

ore: 17:50 - Osservazioni Meteo Pescara
Lat. 42° 26' N Lon. 14° 12' E Alt. 10 metri s.l.m.

nuvoloso Europe/Rome

20 °C

Nuvoloso

Temp. 24 Ore

15 °C

23 °C

Sud-Ovest

29.6 Km/h

Dew point 7 °C

Umidità 42 %

Visibilità  10 Km

Il sole sorge alle ore 05:35

Il sole tramonta alle ore 20:24

Data e Ora Cielo e Fenomeni T °C DP °C Um. % Pres. hPa Vis. km Vento km/h
Oggi h: 17:50 nuvoloso Nuvoloso 20 7 42 1007 10 SO 29.6
Oggi h: 16:50 nuvoloso Nuvoloso 20 8 45 1008 10 S/SO 27.8
Oggi h: 15:50 molto_nuvoloso Molto Nuvoloso 21 7 40 1008 10 S/SO 33.3
Oggi h: 15:30 molto_nuvoloso Molto Nuvoloso 20 6 39 1008 10 S/SO 38.8
Oggi h: 14:50 nuvoloso Nuvoloso 21 9 46 1008 10 SO 33.3
Oggi h: 14:14 poco_nuvoloso Poco Nuvoloso 22 9 43 1008 10 SO 20.3
Oggi h: 13:50 poco_nuvoloso Poco Nuvoloso 23 7 35 1007 10 SO 16.7
Oggi h: 12:50 poco_nuvoloso Poco Nuvoloso 22 8 40 1008 10 SO 24
Oggi h: 11:50 poco_nuvoloso Poco Nuvoloso 21 7 40 1007 10 S/SO 35.2
Oggi h: 11:34 poco_nuvoloso Poco Nuvoloso 21 7 40 1007 10 SO 31.5
Oggi h: 10:50 poco_nuvoloso Poco Nuvoloso 21 8 43 1007 10 S/SO 25.9
Oggi h: 09:55 poco_nuvoloso Poco Nuvoloso 20 7 42 1007 10 SO 29.6
Oggi h: 09:50 poco_nuvoloso Poco Nuvoloso 20 7 42 1007 10 SO 33.3
Oggi h: 08:50 poco_nuvoloso Poco Nuvoloso 19 6 42 1006 10 SO 25.9
Oggi h: 08:11 poco_nuvoloso Poco Nuvoloso 18 5 42 1006 10 SO 29.6
Oggi h: 07:50 poco_nuvoloso Poco Nuvoloso 17 6 48 1006 10 SO 29.6
Oggi h: 06:50 molto_nuvoloso Molto Nuvoloso 16 5 47 1006 10 SO 18.5
Oggi h: 05:50 poco_nuvoloso Poco Nuvoloso 15 6 54 1006 10 SO 20.3
Oggi h: 04:50 poco_nuvoloso Poco Nuvoloso 17 6 48 1006 10 SO 27.8
Oggi h: 03:50 sereno Sereno 16 6 51 1006 10 SO 20.3
Oggi h: 02:50 sereno Sereno 16 6 51 1006 10 SO 18.5
Oggi h: 01:50 sereno Sereno 16 6 51 1006 10 SO 16.7
Oggi h: 00:50 sereno Sereno 16 6 51 1006 10 SO 22.2
Ieri h: 23:50 poco_nuvoloso Poco Nuvoloso 16 7 55 1006 10 SO 18.5
Ieri h: 22:50 poco_nuvoloso Poco Nuvoloso 16 7 55 1006 10 SO 14.8
Ieri h: 21:50 nuvoloso Nuvoloso 16 8 58 1005 10 SO 16.7
Ieri h: 20:50 nuvoloso Nuvoloso 17 13 77 1005 10 N 5.5
Ieri h: 19:50 nuvoloso Nuvoloso 18 13 72 1005 10 E/SE 7.4